Time;durP1;ratioP1;P1;durP2;ratioP2;P2;SDS_P1;SDS_P2;PMS_P1;PMS_P2;Temp;Humidity;BMP_temperature;BMP_pressure;BME280_temperature;BME280_humidity;BME280_pressure;Samples;Min_cycle;Max_cycle;Signal;HPM_P1;HPM_P2
2024/03/29 00:00:15;;;;;;;0.30;0.30;;;9.50;99.90;;;;;;4455990;32;20480;-63
2024/03/29 00:02:41;;;;;;;0.30;0.30;;;9.50;99.90;;;;;;4455716;32;20065;-64
2024/03/29 00:05:07;;;;;;;0.28;0.28;;;9.60;99.90;;;;;;4454649;32;20080;-61
2024/03/29 00:07:32;;;;;;;0.30;0.30;;;9.60;99.90;;;;;;4453939;32;20472;-63
2024/03/29 00:09:58;;;;;;;0.40;0.40;;;9.60;99.90;;;;;;4454363;32;20126;-65
2024/03/29 00:12:23;;;;;;;0.37;0.37;;;9.70;99.90;;;;;;4455247;32;20627;-64
2024/03/29 00:14:51;;;;;;;0.32;0.32;;;9.80;99.90;;;;;;4453115;32;20076;-64
2024/03/29 00:17:18;;;;;;;0.30;0.30;;;9.90;99.90;;;;;;4454880;32;20138;-65
2024/03/29 00:19:43;;;;;;;0.30;0.30;;;9.90;99.90;;;;;;4454708;32;20116;-66
2024/03/29 00:22:09;;;;;;;0.40;0.40;;;10.00;99.90;;;;;;4454980;32;20536;-65
2024/03/29 00:24:34;;;;;;;0.20;0.20;;;9.90;99.90;;;;;;4453925;32;20235;-67
2024/03/29 00:27:00;;;;;;;0.20;0.20;;;9.90;99.90;;;;;;4454685;32;20209;-66
2024/03/29 00:29:26;;;;;;;0.30;0.30;;;9.70;99.90;;;;;;4455100;32;20060;-66
2024/03/29 00:31:52;;;;;;;0.25;0.25;;;9.50;99.90;;;;;;4454128;32;20072;-63
2024/03/29 00:34:17;;;;;;;0.45;0.45;;;9.40;99.90;;;;;;4451690;32;20465;-66
2024/03/29 00:36:43;;;;;;;0.20;0.20;;;9.20;99.90;;;;;;4453200;32;20127;-65
2024/03/29 00:39:11;;;;;;;0.40;0.40;;;9.10;99.90;;;;;;4455789;32;20088;-66
2024/03/29 00:41:36;;;;;;;0.52;0.50;;;8.90;99.90;;;;;;4456468;32;20527;-66
2024/03/29 00:44:02;;;;;;;0.40;0.40;;;8.90;99.90;;;;;;4446561;32;20077;-66
2024/03/29 00:46:28;;;;;;;0.20;0.20;;;8.80;99.90;;;;;;4457405;32;20519;-66
2024/03/29 00:48:54;;;;;;;0.30;0.30;;;8.80;99.90;;;;;;4456996;32;20434;-66
2024/03/29 00:51:19;;;;;;;0.28;0.28;;;8.80;99.90;;;;;;4454392;32;20096;-67
2024/03/29 00:53:45;;;;;;;0.30;0.30;;;8.70;99.90;;;;;;4444589;32;20122;-66
2024/03/29 00:56:10;;;;;;;0.30;0.30;;;8.70;99.90;;;;;;4454906;32;20489;-66
2024/03/29 00:58:36;;;;;;;0.20;0.20;;;8.60;99.90;;;;;;4452693;32;20167;-66
2024/03/29 01:01:01;;;;;;;0.30;0.30;;;8.50;99.90;;;;;;4457020;32;20084;-66
2024/03/29 01:03:28;;;;;;;0.40;0.40;;;8.40;99.90;;;;;;4461149;32;21164;-66
2024/03/29 01:05:54;;;;;;;0.25;0.25;;;8.40;99.90;;;;;;4449547;32;20068;-67
2024/03/29 01:08:20;;;;;;;0.30;0.30;;;8.40;99.90;;;;;;4460680;32;20093;-65
2024/03/29 01:10:46;;;;;;;0.30;0.30;;;8.50;99.90;;;;;;4461408;32;20552;-65
2024/03/29 01:13:11;;;;;;;0.20;0.20;;;8.40;99.90;;;;;;4459245;32;20100;-67
2024/03/29 01:15:37;;;;;;;0.30;0.30;;;8.30;99.90;;;;;;4463119;32;20473;-64
2024/03/29 01:18:04;;;;;;;0.28;0.28;;;8.30;99.90;;;;;;4464717;32;20130;-64
2024/03/29 01:20:30;;;;;;;0.20;0.20;;;8.20;99.90;;;;;;4460427;32;20064;-64
2024/03/29 01:22:55;;;;;;;0.32;0.32;;;8.20;99.90;;;;;;4462303;32;20061;-63
2024/03/29 01:25:21;;;;;;;0.30;0.30;;;8.20;99.90;;;;;;4465387;32;20476;-63
2024/03/29 01:27:46;;;;;;;0.20;0.20;;;8.20;99.90;;;;;;4465136;32;20076;-64
2024/03/29 01:30:12;;;;;;;0.20;0.20;;;8.20;99.90;;;;;;4444646;32;20072;-64
2024/03/29 01:32:37;;;;;;;0.30;0.30;;;8.20;99.90;;;;;;4456640;32;20107;-63
2024/03/29 01:35:04;;;;;;;0.30;0.30;;;8.10;99.90;;;;;;4456549;32;20431;-64
2024/03/29 01:37:30;;;;;;;0.30;0.30;;;8.00;99.90;;;;;;4459017;32;20409;-62
2024/03/29 01:39:56;;;;;;;0.60;0.60;;;8.10;99.90;;;;;;4458077;32;20088;-63
2024/03/29 01:42:21;;;;;;;0.25;0.25;;;8.10;99.90;;;;;;4442905;32;20072;-64
2024/03/29 01:44:47;;;;;;;0.20;0.20;;;8.10;99.90;;;;;;4457311;32;20792;-63
2024/03/29 01:47:13;;;;;;;13.68;0.50;;;8.00;99.90;;;;;;4456897;32;20101;-63
2024/03/29 01:49:40;;;;;;;0.25;0.25;;;7.90;99.90;;;;;;4457170;32;20151;-63
2024/03/29 01:52:06;;;;;;;0.25;0.25;;;7.90;99.90;;;;;;4443099;32;20418;-63
2024/03/29 01:54:32;;;;;;;0.68;0.68;;;7.90;99.90;;;;;;4455623;32;20123;-63
2024/03/29 01:56:58;;;;;;;0.35;0.35;;;7.90;99.90;;;;;;4456282;32;20524;-64
2024/03/29 01:59:24;;;;;;;0.30;0.30;;;7.90;99.90;;;;;;4456250;32;20478;-63
2024/03/29 02:01:50;;;;;;;0.30;0.30;;;7.90;99.90;;;;;;4458500;32;20119;-62
2024/03/29 02:04:15;;;;;;;0.30;0.30;;;7.90;99.90;;;;;;4458130;32;20449;-63
2024/03/29 02:06:42;;;;;;;0.30;0.30;;;7.90;99.90;;;;;;4457472;32;20060;-63
2024/03/29 02:09:07;;;;;;;0.30;0.30;;;7.90;99.90;;;;;;4457450;32;20104;-63
2024/03/29 02:11:34;;;;;;;0.50;0.50;;;7.80;99.90;;;;;;4457526;32;20073;-63
2024/03/29 02:13:59;;;;;;;0.30;0.30;;;7.80;99.90;;;;;;4457426;32;20085;-63
2024/03/29 02:16:25;;;;;;;0.32;0.32;;;7.90;99.90;;;;;;4458263;32;20721;-63
2024/03/29 02:18:50;;;;;;;0.30;0.30;;;7.80;99.90;;;;;;4457078;32;20080;-63
2024/03/29 02:21:18;;;;;;;0.45;0.45;;;7.70;99.90;;;;;;4449306;32;20789;-63
2024/03/29 02:23:46;;;;;;;0.30;0.30;;;7.70;99.90;;;;;;4457046;32;20088;-63
2024/03/29 02:26:12;;;;;;;0.65;0.60;;;7.70;99.90;;;;;;4457127;32;20537;-63
2024/03/29 02:28:38;;;;;;;0.40;0.40;;;7.80;99.90;;;;;;4454347;32;20072;-62
2024/03/29 02:31:04;;;;;;;0.25;0.25;;;7.80;99.90;;;;;;4456078;32;20155;-62
2024/03/29 02:33:29;;;;;;;0.22;0.22;;;7.80;99.90;;;;;;4453925;32;20148;-66
2024/03/29 02:35:55;;;;;;;0.22;0.22;;;7.80;99.90;;;;;;4455001;32;20150;-69
2024/03/29 02:38:20;;;;;;;0.35;0.35;;;7.70;99.90;;;;;;4455519;32;20072;-66
2024/03/29 02:40:46;;;;;;;0.75;0.75;;;7.70;99.90;;;;;;4454442;32;20114;-66
2024/03/29 02:43:11;;;;;;;0.30;0.30;;;7.70;99.90;;;;;;4447522;32;20096;-66
2024/03/29 02:45:37;;;;;;;0.77;0.77;;;7.70;99.90;;;;;;4454738;32;20061;-66
2024/03/29 02:48:03;;;;;;;0.40;0.40;;;7.60;99.90;;;;;;4455539;32;20442;-66
2024/03/29 02:50:29;;;;;;;0.40;0.40;;;7.70;99.90;;;;;;4453261;32;20492;-67
2024/03/29 02:52:54;;;;;;;2.00;0.88;;;7.80;99.90;;;;;;4453995;32;20166;-66
2024/03/29 02:55:20;;;;;;;0.30;0.30;;;7.70;99.90;;;;;;4451481;32;20064;-65
2024/03/29 02:57:45;;;;;;;0.25;0.25;;;7.70;99.90;;;;;;4453757;32;20088;-65
2024/03/29 03:00:13;;;;;;;0.88;0.82;;;7.60;99.90;;;;;;4454005;32;20076;-65
2024/03/29 03:02:39;;;;;;;0.40;0.40;;;7.50;99.90;;;;;;4453629;32;20137;-66
2024/03/29 03:05:06;;;;;;;0.20;0.20;;;7.40;99.90;;;;;;4454211;32;20431;-65
2024/03/29 03:11:17;;;;;;;2.83;1.37;;;7.30;99.90;;;;;;4448777;32;20073;-65
2024/03/29 03:13:03;;;;;;;0.28;0.28;;;7.30;99.90;;;;;;4447488;32;20616;-65
2024/03/29 03:15:29;;;;;;;3.92;0.82;;;7.30;99.90;;;;;;4454583;32;20162;-65
2024/03/29 03:17:54;;;;;;;0.40;0.40;;;7.30;99.90;;;;;;4453228;32;20492;-66
2024/03/29 03:20:19;;;;;;;1.90;0.52;;;7.30;99.90;;;;;;4454001;32;20115;-66
2024/03/29 03:22:45;;;;;;;0.30;0.30;;;7.30;99.90;;;;;;4455248;32;20328;-65
2024/03/29 03:25:11;;;;;;;0.20;0.20;;;7.30;99.90;;;;;;4454600;32;20121;-66
2024/03/29 03:27:36;;;;;;;8.05;0.60;;;7.30;99.90;;;;;;4456431;32;20088;-65
2024/03/29 03:30:02;;;;;;;0.30;0.30;;;7.30;99.90;;;;;;4452325;32;20089;-66
2024/03/29 03:32:27;;;;;;;0.40;0.40;;;7.30;99.90;;;;;;4446013;32;20581;-66
2024/03/29 03:34:53;;;;;;;0.40;0.40;;;7.30;99.90;;;;;;4455112;32;20100;-66
2024/03/29 03:37:18;;;;;;;0.40;0.40;;;7.20;99.90;;;;;;4448183;32;20072;-66
2024/03/29 03:39:44;;;;;;;0.28;0.28;;;7.10;99.90;;;;;;4455657;32;20525;-66
2024/03/29 03:42:09;;;;;;;0.30;0.30;;;7.10;99.90;;;;;;4455204;32;20179;-66
2024/03/29 03:44:35;;;;;;;0.37;0.37;;;7.10;99.90;;;;;;4455185;32;20096;-67
2024/03/29 03:47:01;;;;;;;0.40;0.40;;;7.10;99.90;;;;;;4456290;32;20119;-66
2024/03/29 03:49:26;;;;;;;0.30;0.30;;;7.10;99.90;;;;;;4453788;32;20707;-66
2024/03/29 03:51:52;;;;;;;1.55;0.88;;;7.10;99.90;;;;;;4445966;32;20134;-66
2024/03/29 03:54:17;;;;;;;0.30;0.30;;;7.10;99.90;;;;;;4455406;32;20131;-66
2024/03/29 03:56:42;;;;;;;0.40;0.40;;;7.10;99.90;;;;;;4453625;32;20548;-66
2024/03/29 03:59:08;;;;;;;0.43;0.43;;;6.90;99.90;;;;;;4454808;32;20076;-65
2024/03/29 04:01:34;;;;;;;0.30;0.30;;;7.00;99.90;;;;;;4451766;32;20073;-66
2024/03/29 04:04:00;;;;;;;0.25;0.25;;;7.00;99.90;;;;;;4453886;32;20540;-67
2024/03/29 04:06:25;;;;;;;0.30;0.30;;;7.10;99.90;;;;;;4451979;32;20069;-67
2024/03/29 04:08:51;;;;;;;0.40;0.40;;;7.10;99.90;;;;;;4453787;32;20077;-66
2024/03/29 04:11:16;;;;;;;0.30;0.30;;;7.10;99.90;;;;;;4453972;32;20077;-65
2024/03/29 04:13:43;;;;;;;0.30;0.30;;;7.00;99.90;;;;;;4457770;32;20061;-66
2024/03/29 04:16:08;;;;;;;0.35;0.35;;;7.00;99.90;;;;;;4456247;32;20068;-65
2024/03/29 04:18:34;;;;;;;0.40;0.40;;;7.00;99.90;;;;;;4455354;32;20160;-66
2024/03/29 04:21:01;;;;;;;0.40;0.40;;;6.90;99.90;;;;;;4455523;32;20146;-65
2024/03/29 04:23:26;;;;;;;0.30;0.30;;;7.00;99.90;;;;;;4449152;32;20052;-67
2024/03/29 04:25:53;;;;;;;0.30;0.30;;;6.90;99.90;;;;;;4457350;32;20519;-66
2024/03/29 04:28:18;;;;;;;0.30;0.30;;;7.00;99.90;;;;;;4450348;32;20588;-66
2024/03/29 04:30:53;;;;;;;0.30;0.30;;;7.00;99.90;;;;;;4455617;32;20085;-67
2024/03/29 04:33:18;;;;;;;0.30;0.30;;;7.00;99.90;;;;;;4446722;32;20073;-67
2024/03/29 04:36:01;;;;;;;0.25;0.25;;;7.00;99.90;;;;;;4457117;32;20401;-67
2024/03/29 04:38:27;;;;;;;11.25;1.08;;;7.00;99.90;;;;;;4455394;32;20085;-67
2024/03/29 04:40:54;;;;;;;0.32;0.32;;;7.00;99.90;;;;;;4456099;32;20084;-67
2024/03/29 04:43:22;;;;;;;0.50;0.50;;;6.90;99.90;;;;;;4448200;32;20942;-67
2024/03/29 04:45:48;;;;;;;0.30;0.30;;;6.90;99.90;;;;;;4446621;32;20084;-66
2024/03/29 04:48:13;;;;;;;17.42;1.08;;;6.80;99.90;;;;;;4457473;32;20077;-63
2024/03/29 04:50:39;;;;;;;0.28;0.28;;;6.80;99.90;;;;;;4437628;32;20089;-63
2024/03/29 04:53:05;;;;;;;0.40;0.40;;;6.70;99.90;;;;;;4445360;32;20084;-65
2024/03/29 04:55:31;;;;;;;0.30;0.30;;;6.70;99.90;;;;;;4436716;32;20541;-65
2024/03/29 04:57:57;;;;;;;2.15;0.73;;;6.70;99.90;;;;;;4454989;32;20060;-65
2024/03/29 05:00:22;;;;;;;0.28;0.28;;;6.80;99.90;;;;;;4453019;32;20160;-66
2024/03/29 05:02:48;;;;;;;0.30;0.30;;;6.80;99.90;;;;;;4456936;32;20131;-64
2024/03/29 05:05:13;;;;;;;0.30;0.30;;;6.70;99.90;;;;;;4455629;32;20064;-65
2024/03/29 05:07:39;;;;;;;0.30;0.30;;;6.70;99.90;;;;;;4457839;32;20069;-66
2024/03/29 05:10:06;;;;;;;0.30;0.30;;;6.70;99.90;;;;;;4457505;32;20097;-65
2024/03/29 05:12:32;;;;;;;0.30;0.30;;;6.70;99.90;;;;;;4457360;32;20060;-65
2024/03/29 05:14:58;;;;;;;1.00;0.88;;;6.70;99.90;;;;;;4449974;32;20484;-65
2024/03/29 05:17:26;;;;;;;0.98;0.68;;;6.80;99.90;;;;;;4450151;32;20081;-64
2024/03/29 05:19:52;;;;;;;0.35;0.35;;;6.90;99.90;;;;;;4457368;32;20085;-66
2024/03/29 05:22:18;;;;;;;3.50;0.60;;;6.90;99.90;;;;;;4446292;32;20077;-65
2024/03/29 05:24:43;;;;;;;0.40;0.40;;;6.90;99.90;;;;;;4446115;32;20085;-65
2024/03/29 05:27:09;;;;;;;0.50;0.50;;;6.90;99.90;;;;;;4455664;32;20078;-65
2024/03/29 05:29:34;;;;;;;4.57;0.95;;;6.90;99.90;;;;;;4457018;32;20073;-63
2024/03/29 05:32:04;;;;;;;0.30;0.30;;;6.90;99.90;;;;;;4449700;32;20060;-63
2024/03/29 05:34:30;;;;;;;0.40;0.40;;;6.90;99.90;;;;;;4451385;32;20441;-63
2024/03/29 05:36:55;;;;;;;1.15;1.05;;;6.90;99.90;;;;;;4456078;32;20137;-63
2024/03/29 05:39:21;;;;;;;0.45;0.45;;;6.90;99.90;;;;;;4457975;32;20131;-63
2024/03/29 05:41:46;;;;;;;0.47;0.45;;;6.80;99.90;;;;;;4457133;32;20119;-66
2024/03/29 05:44:12;;;;;;;0.75;0.75;;;6.70;99.90;;;;;;4457088;32;20123;-65
2024/03/29 05:46:40;;;;;;;0.30;0.30;;;6.70;99.90;;;;;;4450164;32;20131;-65
2024/03/29 05:49:05;;;;;;;0.40;0.40;;;6.80;99.90;;;;;;4453912;32;20403;-65
2024/03/29 05:51:31;;;;;;;0.55;0.55;;;6.80;99.90;;;;;;4446965;32;20069;-64
2024/03/29 05:53:57;;;;;;;7.97;1.05;;;6.70;99.90;;;;;;4455662;32;20073;-66
2024/03/29 05:56:22;;;;;;;0.30;0.30;;;6.80;99.90;;;;;;4455746;32;20091;-66
2024/03/29 05:58:48;;;;;;;3.60;1.58;;;6.90;99.90;;;;;;4456356;32;20092;-64
2024/03/29 06:01:13;;;;;;;1.02;0.90;;;6.80;99.90;;;;;;4455875;32;20068;-66
2024/03/29 06:03:38;;;;;;;0.30;0.30;;;6.80;99.90;;;;;;4455751;32;20092;-64
2024/03/29 06:06:04;;;;;;;1.15;1.02;;;6.90;99.90;;;;;;4455985;32;20116;-60
2024/03/29 06:08:30;;;;;;;0.30;0.30;;;6.90;99.90;;;;;;4455736;32;20096;-65
2024/03/29 06:10:56;;;;;;;0.70;0.70;;;7.00;99.90;;;;;;4454869;32;20101;-63
2024/03/29 06:17:22;;;;;;;3.33;1.02;;;7.00;99.90;;;;;;4456526;32;20500;-66
2024/03/29 06:17:22;;;;;;;6.62;2.28;;;7.00;99.90;;;;;;4449399;32;20072;-66
2024/03/29 06:18:53;;;;;;;0.30;0.30;;;7.10;99.90;;;;;;4449348;32;20126;-66
2024/03/29 06:21:18;;;;;;;0.40;0.40;;;7.30;99.90;;;;;;4457225;32;20072;-64
2024/03/29 06:23:44;;;;;;;0.40;0.40;;;7.30;99.90;;;;;;4457316;32;20068;-63
2024/03/29 06:26:09;;;;;;;0.35;0.35;;;7.40;99.90;;;;;;4457853;32;20461;-64
2024/03/29 06:28:34;;;;;;;0.30;0.30;;;7.50;99.90;;;;;;4456787;32;20075;-64
2024/03/29 06:31:02;;;;;;;0.30;0.30;;;7.70;99.90;;;;;;4456238;32;20508;-63
2024/03/29 06:33:27;;;;;;;0.30;0.30;;;7.80;99.90;;;;;;4447174;32;20615;-62
2024/03/29 06:35:54;;;;;;;0.32;0.32;;;7.90;99.90;;;;;;4449188;32;20076;-63
2024/03/29 06:38:21;;;;;;;0.40;0.40;;;8.00;99.90;;;;;;4456425;32;20091;-62
2024/03/29 06:40:48;;;;;;;0.30;0.30;;;8.10;99.90;;;;;;4456674;32;20065;-62
2024/03/29 06:43:13;;;;;;;0.35;0.35;;;8.00;99.90;;;;;;4455396;32;20068;-63
2024/03/29 06:45:43;;;;;;;0.30;0.30;;;8.00;99.90;;;;;;4457160;32;20100;-63
2024/03/29 06:48:09;;;;;;;0.20;0.20;;;8.20;99.90;;;;;;4456894;32;20071;-64
2024/03/29 06:50:34;;;;;;;0.30;0.30;;;8.20;99.90;;;;;;4457589;32;20076;-63
2024/03/29 06:53:00;;;;;;;0.60;0.60;;;8.20;99.90;;;;;;4456249;32;20190;-64
2024/03/29 06:55:27;;;;;;;0.28;0.28;;;8.30;99.90;;;;;;4457031;32;20060;-62
2024/03/29 06:57:52;;;;;;;0.40;0.40;;;8.50;99.90;;;;;;4455384;32;20067;-62
2024/03/29 07:00:18;;;;;;;0.50;0.50;;;8.50;99.90;;;;;;4455529;32;20064;-63
2024/03/29 07:02:43;;;;;;;0.40;0.40;;;8.60;99.90;;;;;;4456045;32;20092;-63
2024/03/29 07:05:11;;;;;;;0.32;0.32;;;8.70;99.90;;;;;;4458633;32;20060;-63
2024/03/29 07:07:37;;;;;;;0.32;0.32;;;8.80;99.90;;;;;;4455935;32;20091;-64
2024/03/29 07:10:03;;;;;;;0.50;0.50;;;8.70;99.90;;;;;;4455330;32;20537;-63
2024/03/29 07:12:29;;;;;;;0.40;0.40;;;8.80;99.90;;;;;;4455012;32;20076;-63
2024/03/29 07:14:54;;;;;;;0.30;0.30;;;8.90;99.90;;;;;;4454241;32;20073;-63
2024/03/29 07:17:20;;;;;;;0.30;0.30;;;8.90;99.90;;;;;;4456301;32;20064;-64
2024/03/29 07:19:45;;;;;;;0.30;0.30;;;9.00;99.90;;;;;;4457362;32;20069;-63
2024/03/29 07:22:10;;;;;;;0.32;0.32;;;9.00;99.90;;;;;;4456877;32;20548;-63
2024/03/29 07:24:36;;;;;;;0.40;0.40;;;9.10;99.90;;;;;;4454416;32;20056;-63
2024/03/29 07:27:02;;;;;;;0.20;0.20;;;9.10;99.90;;;;;;4454634;32;20068;-63
2024/03/29 07:29:27;;;;;;;0.30;0.30;;;9.20;99.90;;;;;;4454564;32;20081;-62
2024/03/29 07:31:52;;;;;;;0.35;0.35;;;9.20;99.90;;;;;;4453691;32;20479;-63
2024/03/29 07:34:20;;;;;;;0.52;0.52;;;9.30;99.90;;;;;;4451433;32;20072;-62
2024/03/29 07:36:45;;;;;;;0.25;0.25;;;9.30;99.90;;;;;;4447865;32;20076;-62
2024/03/29 07:39:10;;;;;;;0.25;0.25;;;9.30;99.90;;;;;;4459996;32;20196;-61
2024/03/29 07:41:36;;;;;;;0.20;0.20;;;9.40;99.90;;;;;;4462003;32;20110;-64
2024/03/29 07:44:03;;;;;;;0.47;0.45;;;9.50;99.90;;;;;;4446691;32;20508;-63
2024/03/29 07:46:31;;;;;;;0.20;0.20;;;9.60;99.90;;;;;;4461632;32;20426;-61
2024/03/29 07:48:57;;;;;;;5.68;1.25;;;9.60;99.90;;;;;;4463324;32;20065;-62
2024/03/29 07:51:23;;;;;;;0.50;0.50;;;9.60;99.90;;;;;;4456944;32;20085;-62
2024/03/29 07:53:48;;;;;;;0.28;0.28;;;9.70;99.90;;;;;;4450754;32;20061;-64
2024/03/29 07:56:16;;;;;;;0.30;0.30;;;9.80;99.90;;;;;;4449876;32;20076;-65
2024/03/29 07:58:42;;;;;;;0.30;0.30;;;9.90;99.90;;;;;;4439058;32;20065;-62
2024/03/29 08:01:08;;;;;;;0.40;0.40;;;9.90;99.90;;;;;;4449415;32;20092;-61
2024/03/29 08:03:34;;;;;;;0.30;0.30;;;9.90;99.90;;;;;;4445787;32;20844;-63
2024/03/29 08:06:04;;;;;;;0.30;0.30;;;9.90;99.90;;;;;;4445222;32;20177;-62
2024/03/29 08:08:31;;;;;;;0.32;0.32;;;9.90;99.90;;;;;;4428734;32;20069;-63
2024/03/29 08:10:57;;;;;;;0.30;0.30;;;9.90;99.90;;;;;;4437439;32;20570;-64
2024/03/29 08:13:25;;;;;;;0.32;0.32;;;9.90;99.90;;;;;;4436602;32;20082;-62
2024/03/29 08:15:58;;;;;;;0.62;0.47;;;9.90;99.90;;;;;;4446457;32;20505;-62
2024/03/29 08:18:24;;;;;;;0.40;0.40;;;9.90;99.90;;;;;;4419338;32;20089;-63
2024/03/29 08:20:49;;;;;;;0.30;0.30;;;10.00;99.90;;;;;;4445495;32;20533;-62
2024/03/29 08:23:15;;;;;;;0.30;0.30;;;10.00;99.90;;;;;;4447481;32;20209;-63
2024/03/29 08:25:40;;;;;;;0.30;0.30;;;10.00;99.90;;;;;;4446667;32;20072;-63
2024/03/29 08:28:06;;;;;;;0.40;0.40;;;10.10;99.90;;;;;;4447283;32;20076;-63
2024/03/29 08:30:34;;;;;;;1.02;0.62;;;10.20;99.90;;;;;;4444864;32;20151;-62
2024/03/29 08:33:02;;;;;;;0.30;0.30;;;10.30;99.90;;;;;;4432324;32;20078;-63
2024/03/29 08:35:29;;;;;;;0.28;0.28;;;10.30;99.90;;;;;;4447863;32;21570;-63
2024/03/29 08:37:54;;;;;;;0.30;0.30;;;10.40;99.90;;;;;;4432729;32;20076;-67
2024/03/29 08:40:19;;;;;;;0.40;0.40;;;10.50;99.90;;;;;;4443688;32;20066;-63
2024/03/29 08:42:45;;;;;;;0.40;0.40;;;10.50;99.90;;;;;;4446137;32;20150;-62
2024/03/29 08:45:11;;;;;;;0.30;0.30;;;10.50;99.90;;;;;;4450829;32;20065;-62
2024/03/29 08:47:37;;;;;;;0.30;0.30;;;10.70;99.90;;;;;;4445188;32;20068;-64
2024/03/29 08:50:05;;;;;;;0.40;0.40;;;10.80;99.90;;;;;;4413155;32;20065;-64
2024/03/29 08:52:30;;;;;;;0.30;0.30;;;10.90;99.90;;;;;;4445296;32;20426;-64
2024/03/29 08:54:56;;;;;;;0.80;0.80;;;11.00;99.90;;;;;;4437458;32;20132;-64
2024/03/29 08:57:21;;;;;;;0.32;0.32;;;10.90;99.90;;;;;;4446598;32;20082;-64
2024/03/29 08:59:47;;;;;;;0.43;0.43;;;11.00;99.90;;;;;;4431036;32;20076;-64
2024/03/29 09:02:12;;;;;;;0.62;0.62;;;11.10;99.90;;;;;;4447579;32;20068;-64
2024/03/29 09:04:38;;;;;;;0.30;0.30;;;11.00;99.90;;;;;;4448519;32;20079;-64
2024/03/29 09:07:03;;;;;;;0.30;0.30;;;11.00;99.90;;;;;;4454261;32;20493;-64
2024/03/29 09:09:29;;;;;;;0.45;0.45;;;11.00;99.90;;;;;;4422722;32;20163;-64
2024/03/29 09:11:55;;;;;;;0.32;0.32;;;11.20;99.90;;;;;;4432932;32;20057;-64
2024/03/29 09:14:21;;;;;;;0.30;0.30;;;11.20;99.90;;;;;;4449631;32;20093;-64
2024/03/29 09:16:47;;;;;;;0.30;0.30;;;11.20;99.90;;;;;;4448559;32;20092;-64
2024/03/29 09:19:13;;;;;;;0.30;0.30;;;11.30;99.90;;;;;;4449127;32;20072;-65
2024/03/29 09:21:39;;;;;;;0.30;0.30;;;11.30;99.90;;;;;;4446634;32;20119;-63
2024/03/29 09:24:05;;;;;;;5.47;0.50;;;11.40;99.90;;;;;;4449398;32;20064;-63
2024/03/29 09:26:31;;;;;;;0.50;0.50;;;11.40;99.90;;;;;;4447432;32;20096;-63
2024/03/29 09:28:56;;;;;;;0.30;0.30;;;11.40;99.90;;;;;;4434361;32;20065;-65
2024/03/29 09:31:22;;;;;;;0.25;0.25;;;11.40;99.90;;;;;;4448694;32;20077;-63
2024/03/29 09:33:52;;;;;;;0.52;0.50;;;11.40;99.90;;;;;;4437080;32;20073;-62
2024/03/29 09:36:19;;;;;;;0.62;0.62;;;11.50;99.90;;;;;;4446014;32;20073;-65
2024/03/29 09:38:45;;;;;;;0.82;0.82;;;11.50;99.90;;;;;;4445908;32;20080;-64
2024/03/29 09:41:16;;;;;;;0.80;0.57;;;11.60;99.90;;;;;;4442378;32;20090;-65
2024/03/29 09:43:42;;;;;;;;;;;11.70;99.90;;;;;;4414978;32;20502;-64
2024/03/29 09:46:08;;;;;;;0.73;0.73;;;11.80;99.90;;;;;;4440502;32;19940;-64
2024/03/29 09:48:37;;;;;;;0.37;0.37;;;11.80;99.90;;;;;;4442158;32;20085;-63
2024/03/29 09:51:07;;;;;;;0.32;0.32;;;11.90;99.90;;;;;;4426727;32;20072;-63
2024/03/29 09:53:37;;;;;;;0.45;0.45;;;11.80;99.90;;;;;;4426982;32;20113;-63
2024/03/29 09:56:05;;;;;;;0.40;0.40;;;11.90;99.90;;;;;;4448730;32;20131;-63
2024/03/29 09:58:31;;;;;;;0.30;0.30;;;11.90;99.90;;;;;;4449488;32;20151;-63
2024/03/29 10:00:57;;;;;;;0.60;0.60;;;11.90;99.90;;;;;;4457642;32;20548;-63
2024/03/29 10:03:30;;;;;;;0.28;0.28;;;12.00;99.90;;;;;;4456953;32;20056;-64
2024/03/29 10:05:58;;;;;;;0.40;0.40;;;12.10;99.90;;;;;;4458189;32;20069;-63
2024/03/29 10:08:27;;;;;;;0.50;0.50;;;12.10;99.90;;;;;;4449201;32;20141;-63
2024/03/29 10:10:55;;;;;;;0.30;0.30;;;12.00;99.90;;;;;;4450359;32;20508;-63
2024/03/29 10:13:20;;;;;;;1.65;1.10;;;12.00;99.90;;;;;;4443882;32;20126;-63
2024/03/29 10:15:55;;;;;;;0.25;0.25;;;12.00;99.90;;;;;;4458582;32;20069;-64
2024/03/29 10:18:21;;;;;;;0.40;0.40;;;11.90;99.90;;;;;;4457244;32;20109;-64
2024/03/29 10:20:47;;;;;;;0.62;0.62;;;11.80;99.90;;;;;;4456712;32;20076;-64
2024/03/29 10:23:12;;;;;;;0.30;0.30;;;11.80;99.90;;;;;;4458212;32;20056;-64
2024/03/29 10:25:40;;;;;;;0.40;0.40;;;11.70;99.90;;;;;;4457705;32;20077;-64
2024/03/29 10:28:05;;;;;;;0.25;0.25;;;11.70;99.90;;;;;;4457595;32;21189;-64
2024/03/29 10:30:31;;;;;;;0.60;0.60;;;11.60;99.90;;;;;;4455741;32;20520;-63
2024/03/29 10:32:57;;;;;;;0.40;0.40;;;11.60;99.90;;;;;;4456219;32;20532;-63
2024/03/29 10:35:22;;;;;;;0.25;0.25;;;11.50;99.90;;;;;;4456311;32;20060;-63
2024/03/29 10:37:49;;;;;;;0.70;0.40;;;11.50;99.90;;;;;;4450545;32;20081;-64
2024/03/29 10:40:18;;;;;;;0.85;0.37;;;11.50;99.90;;;;;;4456806;32;20076;-63
2024/03/29 10:42:47;;;;;;;0.57;0.57;;;11.50;99.90;;;;;;4459014;32;20240;-65
2024/03/29 10:45:14;;;;;;;0.30;0.30;;;11.50;99.90;;;;;;4457767;32;20084;-63
2024/03/29 10:47:44;;;;;;;2.92;0.70;;;11.50;99.90;;;;;;4456656;32;20072;-64
2024/03/29 10:50:11;;;;;;;0.30;0.30;;;11.50;99.90;;;;;;4457198;32;20525;-64
2024/03/29 10:52:39;;;;;;;0.37;0.37;;;11.40;99.90;;;;;;4456524;32;20142;-64
2024/03/29 10:55:08;;;;;;;0.30;0.30;;;11.40;99.90;;;;;;4449623;32;20081;-63
2024/03/29 10:57:37;;;;;;;0.30;0.30;;;11.50;99.90;;;;;;4448330;32;20128;-63
2024/03/29 11:00:04;;;;;;;0.40;0.40;;;11.50;99.90;;;;;;4457381;32;20069;-63
2024/03/29 11:02:48;;;;;;;0.35;0.35;;;11.60;99.90;;;;;;4455073;32;20084;-65
2024/03/29 11:05:16;;;;;;;0.30;0.30;;;11.60;99.90;;;;;;4450456;32;20101;-63
2024/03/29 11:07:43;;;;;;;0.40;0.40;;;11.70;99.90;;;;;;4458001;32;20494;-64
2024/03/29 11:10:14;;;;;;;0.50;0.50;;;11.90;99.90;;;;;;4450735;32;20076;-64
2024/03/29 11:12:51;;;;;;;0.30;0.30;;;12.10;99.90;;;;;;4449799;32;20064;-63
2024/03/29 11:15:29;;;;;;;0.40;0.40;;;12.00;99.90;;;;;;4455919;32;20159;-63
2024/03/29 11:17:56;;;;;;;0.43;0.43;;;12.20;99.90;;;;;;4456112;32;20080;-61
2024/03/29 11:20:33;;;;;;;0.50;0.50;;;12.20;99.90;;;;;;4453295;32;20146;-65
2024/03/29 11:22:59;;;;;;;0.30;0.30;;;12.30;99.90;;;;;;4454516;32;20115;-67
2024/03/29 11:25:24;;;;;;;0.40;0.40;;;12.60;99.90;;;;;;4454370;32;20088;-67
2024/03/29 11:27:50;;;;;;;0.30;0.30;;;12.60;99.90;;;;;;4454771;32;20104;-66
2024/03/29 11:30:18;;;;;;;0.35;0.35;;;12.50;99.90;;;;;;4454833;32;20119;-66
2024/03/29 11:32:43;;;;;;;0.32;0.32;;;12.60;99.90;;;;;;4444780;32;20122;-66
2024/03/29 11:35:16;;;;;;;0.30;0.30;;;12.50;99.90;;;;;;4455422;32;20635;-66
2024/03/29 11:37:42;;;;;;;0.28;0.28;;;12.40;99.90;;;;;;4446055;32;20541;-66
2024/03/29 11:40:11;;;;;;;0.20;0.20;;;12.40;99.90;;;;;;4454131;32;20077;-66
2024/03/29 11:42:38;;;;;;;0.30;0.30;;;12.40;99.90;;;;;;4454113;32;20105;-67
2024/03/29 11:45:07;;;;;;;0.32;0.32;;;12.40;99.90;;;;;;4452779;32;20533;-66
2024/03/29 11:47:33;;;;;;;0.40;0.40;;;12.50;99.90;;;;;;4453852;32;20097;-67
2024/03/29 11:50:00;;;;;;;0.30;0.30;;;12.40;99.90;;;;;;4453570;32;20080;-66
2024/03/29 11:52:26;;;;;;;0.40;0.40;;;12.30;99.90;;;;;;4447729;32;143137;-67
2024/03/29 11:54:54;;;;;;;0.30;0.30;;;12.20;99.90;;;;;;4450504;32;20065;-66
2024/03/29 11:57:19;;;;;;;0.70;0.70;;;12.30;99.90;;;;;;4452721;32;20065;-66
2024/03/29 11:59:45;;;;;;;0.52;0.52;;;12.20;99.90;;;;;;4452527;32;20084;-66
2024/03/29 12:02:13;;;;;;;0.30;0.30;;;12.20;99.90;;;;;;4455034;32;20425;-67
2024/03/29 12:04:40;;;;;;;0.40;0.40;;;12.20;99.90;;;;;;4446263;32;20606;-66
2024/03/29 12:07:06;;;;;;;0.30;0.30;;;12.20;99.90;;;;;;4454600;32;20526;-67
2024/03/29 12:09:32;;;;;;;0.30;0.30;;;12.20;99.90;;;;;;4454152;32;20056;-67
2024/03/29 12:11:59;;;;;;;0.22;0.22;;;12.30;99.90;;;;;;4452506;32;20049;-66
2024/03/29 12:14:27;;;;;;;0.30;0.30;;;12.30;99.90;;;;;;4453109;32;20057;-66
2024/03/29 12:16:53;;;;;;;3.70;1.20;;;12.30;99.90;;;;;;4453851;32;20109;-67
2024/03/29 12:19:27;;;;;;;0.40;0.40;;;12.40;99.90;;;;;;4453535;32;20092;-67
2024/03/29 12:21:53;;;;;;;0.30;0.30;;;12.60;99.90;;;;;;4454102;32;20520;-67
2024/03/29 12:24:20;;;;;;;0.32;0.32;;;12.60;99.90;;;;;;4451338;32;20127;-67
2024/03/29 12:26:45;;;;;;;0.40;0.40;;;12.80;99.90;;;;;;4454495;32;20131;-67
2024/03/29 12:29:11;;;;;;;0.40;0.40;;;12.80;99.90;;;;;;4453349;32;20504;-66
2024/03/29 12:31:38;;;;;;;0.35;0.35;;;12.80;99.90;;;;;;4454861;32;20073;-66
2024/03/29 12:34:04;;;;;;;0.50;0.50;;;13.00;99.90;;;;;;4454425;32;20064;-67
2024/03/29 12:36:32;;;;;;;0.30;0.30;;;13.10;99.90;;;;;;4455602;32;20106;-65
2024/03/29 12:39:02;;;;;;;0.50;0.50;;;13.30;99.90;;;;;;4456881;32;20122;-64
2024/03/29 12:41:29;;;;;;;0.30;0.30;;;13.50;99.90;;;;;;4457270;32;20122;-64
2024/03/29 12:43:55;;;;;;;0.40;0.40;;;13.80;99.90;;;;;;4456613;32;20618;-63
2024/03/29 12:46:20;;;;;;;0.77;0.77;;;14.20;99.90;;;;;;4458056;32;20053;-64
2024/03/29 12:48:46;;;;;;;0.40;0.40;;;14.60;99.90;;;;;;4457063;32;20061;-61
2024/03/29 12:51:12;;;;;;;0.52;0.47;;;14.70;99.90;;;;;;4456752;32;20056;-62